createdAt,value
2023-03-15T00:00:14.607Z,24.40
2023-03-15T00:01:14.597Z,24.40
2023-03-15T00:02:14.610Z,24.40
2023-03-15T00:03:14.711Z,24.40
2023-03-15T00:04:14.651Z,24.39
2023-03-15T00:05:14.652Z,24.40
2023-03-15T00:06:14.674Z,24.39
2023-03-15T00:07:14.670Z,24.39
2023-03-15T00:08:14.721Z,24.40
2023-03-15T00:09:14.724Z,24.40
2023-03-15T00:10:14.735Z,24.40
2023-03-15T00:11:14.747Z,24.40
2023-03-15T00:13:14.765Z,24.40
2023-03-15T00:31:15.488Z,24.39
2023-03-15T00:32:15.453Z,24.39
2023-03-15T00:33:15.512Z,24.39
2023-03-15T00:34:15.517Z,24.38
2023-03-15T00:35:15.550Z,24.39
2023-03-15T00:36:15.579Z,24.39
2023-03-15T00:37:15.574Z,24.39
2023-03-15T00:38:15.616Z,24.39
2023-03-15T00:39:15.660Z,24.39
2023-03-15T00:40:15.688Z,24.39
2023-03-15T00:41:15.732Z,24.39
2023-03-15T00:42:15.763Z,24.39
2023-03-15T00:43:15.799Z,24.39
2023-03-15T00:44:15.841Z,24.38
2023-03-15T00:45:15.900Z,24.39
2023-03-15T00:46:16.052Z,24.39
2023-03-15T00:47:16.024Z,24.39
2023-03-15T00:48:16.038Z,24.38
2023-03-15T00:49:16.091Z,24.38
2023-03-15T00:50:16.133Z,24.39
2023-03-15T00:51:16.145Z,24.38
2023-03-15T00:52:16.182Z,24.38
2023-03-15T00:53:16.216Z,24.38
2023-03-15T00:54:16.264Z,24.39
2023-03-15T00:55:16.296Z,24.38
2023-03-15T00:57:16.430Z,24.38
2023-03-15T00:58:16.450Z,24.38
2023-03-15T00:59:16.463Z,24.38
2023-03-15T01:00:16.572Z,24.38
2023-03-15T01:01:16.559Z,24.38
2023-03-15T01:02:16.623Z,24.37
2023-03-15T01:03:16.734Z,24.37
2023-03-15T01:04:16.718Z,24.38
2023-03-15T01:05:16.737Z,24.38
2023-03-15T01:06:16.845Z,24.38
2023-03-15T01:07:16.877Z,24.38
2023-03-15T01:08:16.953Z,24.38
2023-03-15T01:09:16.985Z,24.37
2023-03-15T01:10:16.998Z,24.38
2023-03-15T01:11:17.062Z,24.38
2023-03-15T01:12:17.115Z,24.37
2023-03-15T01:13:17.150Z,24.37
2023-03-15T01:14:17.194Z,24.38
2023-03-15T01:15:17.238Z,24.38
2023-03-15T01:16:17.331Z,24.38
2023-03-15T01:17:17.311Z,24.37
2023-03-15T01:18:17.372Z,24.37
2023-03-15T01:19:17.445Z,24.37
2023-03-15T01:20:17.453Z,24.37
2023-03-15T01:21:17.511Z,24.37
2023-03-15T01:22:17.559Z,24.37
2023-03-15T01:23:17.580Z,24.37
2023-03-15T01:24:17.645Z,24.37
2023-03-15T01:25:17.687Z,24.37
2023-03-15T01:26:17.728Z,24.38
2023-03-15T01:27:17.764Z,24.38
2023-03-15T01:28:17.787Z,24.37
2023-03-15T01:29:17.837Z,24.38
2023-03-15T01:30:17.886Z,24.37
2023-03-15T01:31:17.938Z,24.38
2023-03-15T01:32:17.985Z,24.37
2023-03-15T01:33:18.034Z,24.37
2023-03-15T01:34:18.032Z,24.37
2023-03-15T01:35:18.087Z,24.37
2023-03-15T01:36:18.154Z,24.38
2023-03-15T01:37:18.175Z,24.37
2023-03-15T01:38:18.244Z,24.38
2023-03-15T01:39:18.258Z,24.37
2023-03-15T01:40:18.268Z,24.37
2023-03-15T01:41:18.284Z,24.37
2023-03-15T01:42:18.284Z,24.38
2023-03-15T01:43:18.308Z,24.37
2023-03-15T01:44:18.304Z,24.38
2023-03-15T01:45:18.366Z,24.38
2023-03-15T01:46:18.456Z,24.37
2023-03-15T01:47:18.444Z,24.37
2023-03-15T01:48:18.486Z,24.37
2023-03-15T01:49:18.523Z,24.37
2023-03-15T01:50:18.579Z,24.37
2023-03-15T01:51:18.592Z,24.37
2023-03-15T01:52:18.620Z,24.37
2023-03-15T01:53:18.620Z,24.37
2023-03-15T01:54:18.645Z,24.37
2023-03-15T01:55:18.658Z,24.37
2023-03-15T01:56:18.698Z,24.38
2023-03-15T01:57:18.668Z,24.37
2023-03-15T01:58:18.656Z,24.36
2023-03-15T01:59:18.683Z,24.37
2023-03-15T02:00:18.722Z,24.37
2023-03-15T02:01:18.798Z,24.37
2023-03-15T02:02:18.761Z,24.37
2023-03-15T02:03:18.746Z,24.37
2023-03-15T02:04:18.756Z,24.37
2023-03-15T02:05:18.753Z,24.37
2023-03-15T02:06:18.779Z,24.37
2023-03-15T02:07:18.795Z,24.37
2023-03-15T02:08:18.885Z,24.37
2023-03-15T02:09:18.923Z,24.37
2023-03-15T02:10:18.951Z,24.36
2023-03-15T02:11:18.969Z,24.37
2023-03-15T02:12:19.008Z,24.37
2023-03-15T02:13:19.042Z,24.37
2023-03-15T02:14:19.095Z,24.37
2023-03-15T02:15:19.151Z,24.37
2023-03-15T02:16:19.259Z,24.37
2023-03-15T02:17:19.229Z,24.37
2023-03-15T02:18:19.258Z,24.36
2023-03-15T02:19:19.321Z,24.36
2023-03-15T02:20:19.395Z,24.36
2023-03-15T02:21:19.397Z,24.37
2023-03-15T02:22:19.447Z,24.37
2023-03-15T02:23:19.472Z,24.37
2023-03-15T02:24:19.543Z,24.36
2023-03-15T02:25:19.542Z,24.37
2023-03-15T02:26:19.559Z,24.37
2023-03-15T02:27:19.648Z,24.37
2023-03-15T02:28:19.606Z,24.37
2023-03-15T02:29:19.608Z,24.36
2023-03-15T02:30:19.648Z,24.37
2023-03-15T02:31:19.673Z,24.37
2023-03-15T02:32:19.662Z,24.36
2023-03-15T02:33:19.677Z,24.37
2023-03-15T02:34:19.657Z,24.36
2023-03-15T02:35:19.680Z,24.36
2023-03-15T02:36:19.737Z,24.37
2023-03-15T02:37:19.734Z,24.36
2023-03-15T02:38:19.734Z,24.36
2023-03-15T02:39:19.770Z,24.37
2023-03-15T02:45:19.960Z,24.37
2023-03-15T02:46:20.024Z,24.37
2023-03-15T02:47:20.039Z,24.37
2023-03-15T02:48:20.081Z,24.37
2023-03-15T02:49:20.119Z,24.36
2023-03-15T02:50:20.121Z,24.36
2023-03-15T02:51:20.154Z,24.36
2023-03-15T02:52:20.159Z,24.36
2023-03-15T02:53:20.152Z,24.37
2023-03-15T02:54:20.167Z,24.36
2023-03-15T02:55:20.191Z,24.36
2023-03-15T02:56:20.163Z,24.35
2023-03-15T02:57:20.200Z,24.36
2023-03-15T02:58:20.196Z,24.36
2023-03-15T02:59:20.238Z,24.35
2023-03-15T03:00:20.257Z,24.35
2023-03-15T03:01:20.346Z,24.35
2023-03-15T03:02:20.403Z,24.34
2023-03-15T03:03:20.374Z,24.34
2023-03-15T03:04:20.427Z,24.34
2023-03-15T03:05:20.491Z,24.34
2023-03-15T03:06:20.518Z,24.34
2023-03-15T03:07:20.571Z,24.34
2023-03-15T03:08:20.637Z,24.34
2023-03-15T03:09:20.703Z,24.34
2023-03-15T03:10:20.758Z,24.33
2023-03-15T03:11:20.813Z,24.34
2023-03-15T03:12:20.855Z,24.34
2023-03-15T03:13:20.874Z,24.33
2023-03-15T03:14:20.922Z,24.34
2023-03-15T03:15:20.996Z,24.33
2023-03-15T03:16:21.060Z,24.34
2023-03-15T03:17:21.070Z,24.33
2023-03-15T03:18:21.119Z,24.33
2023-03-15T03:30:21.676Z,24.33
2023-03-15T03:31:21.746Z,24.32
2023-03-15T03:32:21.902Z,24.32
2023-03-15T03:33:21.833Z,24.33
2023-03-15T03:34:21.894Z,24.33
2023-03-15T03:35:21.904Z,24.33
2023-03-15T03:36:21.953Z,24.32
2023-03-15T03:37:22.003Z,24.33
2023-03-15T03:38:22.009Z,24.33
2023-03-15T03:39:22.102Z,24.33
2023-03-15T03:40:22.141Z,24.33
2023-03-15T03:41:22.194Z,24.33
2023-03-15T03:42:22.228Z,24.32
2023-03-15T03:43:22.268Z,24.32
2023-03-15T03:44:22.385Z,24.33
2023-03-15T03:45:22.397Z,24.33
2023-03-15T03:46:22.445Z,24.33
2023-03-15T03:47:22.463Z,24.34
2023-03-15T03:48:22.576Z,24.33
2023-03-15T03:49:22.529Z,24.33
2023-03-15T03:50:22.588Z,24.33
2023-03-15T03:51:22.662Z,24.34
2023-03-15T03:52:22.708Z,24.34
2023-03-15T03:53:22.705Z,24.34
2023-03-15T03:54:22.789Z,24.35
2023-03-15T03:55:22.822Z,24.34
2023-03-15T03:56:22.854Z,24.34
2023-03-15T03:57:22.899Z,24.34
2023-03-15T03:58:22.886Z,24.35
2023-03-15T03:59:22.899Z,24.35
2023-03-15T04:00:22.956Z,24.35
2023-03-15T04:01:22.967Z,24.35
2023-03-15T04:02:22.975Z,24.35
2023-03-15T04:03:22.951Z,24.36
2023-03-15T04:04:22.983Z,24.36
2023-03-15T04:05:23.021Z,24.37
2023-03-15T04:06:23.106Z,24.37
2023-03-15T04:07:23.138Z,24.38
2023-03-15T04:08:23.138Z,24.39
2023-03-15T04:09:23.205Z,24.39
2023-03-15T04:31:23.706Z,24.71
2023-03-15T04:32:23.673Z,24.72
2023-03-15T04:33:23.643Z,24.74
2023-03-15T04:34:23.628Z,24.75
2023-03-15T04:35:23.648Z,24.76
2023-03-15T04:36:23.808Z,24.76
2023-03-15T04:37:23.730Z,24.77
2023-03-15T04:38:23.751Z,24.79
2023-03-15T04:39:23.776Z,24.79
2023-03-15T04:40:23.789Z,24.80
2023-03-15T04:41:23.823Z,24.81
2023-03-15T04:42:23.869Z,24.82
2023-03-15T04:43:23.912Z,24.82
2023-03-15T04:44:23.938Z,24.83
2023-03-15T04:45:24.016Z,24.84
2023-03-15T04:47:24.057Z,24.84
2023-03-15T04:48:24.137Z,24.86
2023-03-15T04:49:24.227Z,24.86
2023-03-15T04:50:24.260Z,24.86
2023-03-15T04:51:24.322Z,24.87
2023-03-15T04:52:24.391Z,24.86
2023-03-15T04:53:24.389Z,24.86
2023-03-15T04:54:24.427Z,24.87
2023-03-15T04:55:24.418Z,24.87
2023-03-15T04:56:24.470Z,24.87
2023-03-15T04:57:24.517Z,24.87
2023-03-15T04:58:24.541Z,24.87
2023-03-15T04:59:24.600Z,24.87
2023-03-15T05:00:24.819Z,24.87
2023-03-15T05:01:24.663Z,24.87
2023-03-15T05:02:24.734Z,24.88
2023-03-15T05:03:24.678Z,24.87
2023-03-15T05:04:24.725Z,24.86
2023-03-15T05:05:24.766Z,24.87
2023-03-15T05:06:24.795Z,24.87
2023-03-15T05:07:24.793Z,24.87
2023-03-15T05:08:24.811Z,24.87
2023-03-15T05:09:24.865Z,24.87
2023-03-15T05:10:24.870Z,24.88
2023-03-15T05:11:24.882Z,24.87
2023-03-15T05:12:24.904Z,24.86
2023-03-15T05:13:24.928Z,24.85
2023-03-15T05:14:24.932Z,24.86
2023-03-15T05:15:25.022Z,24.87
2023-03-15T05:16:25.007Z,24.86
2023-03-15T05:17:24.973Z,24.86
2023-03-15T05:18:25.013Z,24.87
2023-03-15T05:19:25.030Z,24.87
2023-03-15T05:20:25.038Z,24.86
2023-03-15T05:21:25.059Z,24.86
2023-03-15T05:22:25.067Z,24.86
2023-03-15T05:23:25.095Z,24.85
2023-03-15T05:24:25.114Z,24.87
2023-03-15T05:25:25.097Z,24.87
2023-03-15T05:26:25.104Z,24.88
2023-03-15T05:27:25.138Z,24.87
2023-03-15T05:28:25.150Z,24.87
2023-03-15T05:29:25.172Z,24.87
2023-03-15T05:30:25.198Z,24.87
2023-03-15T05:31:25.226Z,24.86
2023-03-15T05:32:25.244Z,24.85
2023-03-15T05:33:25.214Z,24.85
2023-03-15T05:34:25.250Z,24.86
2023-03-15T05:35:25.419Z,24.87
2023-03-15T05:36:25.285Z,24.86
2023-03-15T05:37:25.280Z,24.85
2023-03-15T05:38:25.313Z,24.86
2023-03-15T05:39:25.321Z,24.86
2023-03-15T05:40:25.366Z,24.87
2023-03-15T05:41:25.407Z,24.86
2023-03-15T05:42:25.395Z,24.86
2023-03-15T05:43:25.416Z,24.86
2023-03-15T05:44:25.462Z,24.86
2023-03-15T05:45:25.450Z,24.87
2023-03-15T05:46:25.462Z,24.87
2023-03-15T05:47:25.480Z,24.87
2023-03-15T05:48:25.512Z,24.88
2023-03-15T05:49:25.552Z,24.87
2023-03-15T05:50:25.545Z,24.87
2023-03-15T05:51:26.074Z,24.88
2023-03-15T05:52:25.576Z,24.89
2023-03-15T05:53:25.593Z,24.89
2023-03-15T05:54:25.651Z,24.89
2023-03-15T05:55:25.616Z,24.89
2023-03-15T05:56:25.595Z,24.89
2023-03-15T05:57:25.624Z,24.89
2023-03-15T05:58:25.620Z,24.89
2023-03-15T05:59:25.656Z,24.89
2023-03-15T06:00:25.683Z,24.89
2023-03-15T06:01:32.688Z,24.89
2023-03-15T06:02:25.675Z,24.88
2023-03-15T06:03:25.702Z,24.88
2023-03-15T06:04:25.723Z,24.89
2023-03-15T06:05:25.695Z,24.88
2023-03-15T06:06:25.643Z,24.88
2023-03-15T06:07:25.629Z,24.89
2023-03-15T06:08:25.632Z,24.89
2023-03-15T06:09:25.636Z,24.88
2023-03-15T06:10:25.619Z,24.89
2023-03-15T06:11:25.604Z,24.90
2023-03-15T06:12:25.578Z,24.90
2023-03-15T06:13:25.618Z,24.89
2023-03-15T06:14:25.647Z,24.90
2023-03-15T06:15:25.589Z,24.90
2023-03-15T06:16:25.570Z,24.90
2023-03-15T06:17:25.580Z,24.90
2023-03-15T06:18:25.570Z,24.90
2023-03-15T06:19:25.554Z,24.91
2023-03-15T06:20:25.559Z,24.91
2023-03-15T06:21:25.556Z,24.91
2023-03-15T06:22:25.541Z,24.90
2023-03-15T06:23:25.525Z,24.91
2023-03-15T06:24:25.526Z,24.91
2023-03-15T06:25:25.512Z,24.92
2023-03-15T06:26:25.538Z,24.92
2023-03-15T06:27:25.518Z,24.92
2023-03-15T06:28:25.531Z,24.92
2023-03-15T06:29:25.496Z,24.93
2023-03-15T06:30:25.485Z,24.93
2023-03-15T06:31:25.477Z,24.94
2023-03-15T06:32:25.526Z,24.92
2023-03-15T06:33:25.467Z,24.83
2023-03-15T06:34:25.476Z,24.73
2023-03-15T06:35:25.487Z,24.58
2023-03-15T06:36:25.488Z,24.45
2023-03-15T06:37:34.652Z,24.31
2023-03-15T06:38:26.432Z,24.19
2023-03-15T06:39:26.105Z,24.07
2023-03-15T06:40:25.524Z,23.96
2023-03-15T06:41:25.398Z,23.88
2023-03-15T06:42:25.426Z,23.82
2023-03-15T06:43:25.405Z,23.80
2023-03-15T06:44:25.402Z,23.80
2023-03-15T06:45:25.375Z,23.78
2023-03-15T06:46:32.638Z,23.74
2023-03-15T06:47:25.364Z,23.71
2023-03-15T06:48:25.475Z,23.73
2023-03-15T06:49:25.359Z,23.78
2023-03-15T06:50:27.633Z,23.84
2023-03-15T06:51:25.850Z,23.92
2023-03-15T06:52:25.344Z,23.99
2023-03-15T06:53:25.343Z,24.09
2023-03-15T06:54:25.352Z,24.16
2023-03-15T06:55:25.305Z,24.22
2023-03-15T06:56:25.359Z,24.28
2023-03-15T06:57:25.291Z,24.34
2023-03-15T06:58:25.325Z,24.40
2023-03-15T06:59:25.300Z,24.46
2023-03-15T07:00:25.292Z,24.52
2023-03-15T07:01:25.339Z,24.57
2023-03-15T07:02:25.346Z,24.63
2023-03-15T07:03:25.271Z,24.67
2023-03-15T07:04:25.399Z,24.71
2023-03-15T07:05:25.239Z,24.74
2023-03-15T07:06:25.266Z,24.78
2023-03-15T07:07:25.310Z,24.83
2023-03-15T07:08:25.258Z,24.88
2023-03-15T07:09:25.251Z,24.90
2023-03-15T07:10:25.234Z,24.94
2023-03-15T07:11:25.272Z,24.95
2023-03-15T07:12:25.202Z,24.99
2023-03-15T07:13:25.198Z,25.02
2023-03-15T07:14:25.191Z,24.90
2023-03-15T07:15:25.195Z,24.70
2023-03-15T07:16:25.210Z,24.53
2023-03-15T07:17:25.204Z,24.32
2023-03-15T07:18:25.143Z,24.22
2023-03-15T07:19:25.150Z,24.16
2023-03-15T07:20:25.184Z,24.09
2023-03-15T07:21:25.167Z,24.09
2023-03-15T07:22:25.138Z,24.10
2023-03-15T07:23:25.160Z,24.13
2023-03-15T07:24:25.166Z,24.15
2023-03-15T07:25:25.112Z,24.18
2023-03-15T07:26:25.104Z,24.19
2023-03-15T07:27:25.119Z,24.22
2023-03-15T07:28:25.101Z,24.23
2023-03-15T07:29:25.099Z,24.25
2023-03-15T07:30:25.093Z,24.27
2023-03-15T07:31:25.173Z,24.30
2023-03-15T07:32:25.269Z,24.30
2023-03-15T07:33:25.292Z,24.24
2023-03-15T07:34:25.276Z,24.22
2023-03-15T07:35:25.324Z,24.21
2023-03-15T07:36:25.347Z,24.25
2023-03-15T07:37:25.679Z,24.27
2023-03-15T07:38:25.352Z,24.27
2023-03-15T07:39:25.392Z,24.29
2023-03-15T07:40:25.396Z,24.26
2023-03-15T07:41:25.413Z,24.21
2023-03-15T07:42:25.682Z,24.22
2023-03-15T07:43:25.528Z,24.25
2023-03-15T07:44:25.465Z,24.30
2023-03-15T07:45:25.487Z,24.37
2023-03-15T07:46:25.548Z,24.45
2023-03-15T07:47:25.530Z,24.52
2023-03-15T07:48:25.588Z,24.60
2023-03-15T07:49:25.585Z,24.68
2023-03-15T07:50:25.592Z,24.75
2023-03-15T07:51:25.637Z,24.82
2023-03-15T07:52:25.643Z,24.88
2023-03-15T07:53:25.736Z,24.93
2023-03-15T07:54:27.877Z,24.98
2023-03-15T07:55:25.716Z,25.03
2023-03-15T07:56:25.727Z,25.07
2023-03-15T07:57:28.714Z,25.10
2023-03-15T07:58:25.700Z,25.14
2023-03-15T07:59:25.718Z,25.17
2023-03-15T08:00:25.733Z,25.21
2023-03-15T08:01:25.682Z,25.25
2023-03-15T08:02:25.828Z,25.27
2023-03-15T08:03:25.741Z,25.31
2023-03-15T08:04:25.681Z,25.34
2023-03-15T08:05:28.464Z,25.37
2023-03-15T08:06:25.664Z,25.38
2023-03-15T08:07:25.667Z,25.40
2023-03-15T08:08:25.627Z,25.41
2023-03-15T08:09:25.619Z,25.42
2023-03-15T08:10:25.601Z,25.42
2023-03-15T08:11:25.625Z,25.41
2023-03-15T08:12:25.698Z,25.41
2023-03-15T08:13:25.619Z,25.42
2023-03-15T08:14:25.600Z,25.39
2023-03-15T08:15:25.608Z,25.37
2023-03-15T08:16:25.626Z,25.33
2023-03-15T08:17:25.759Z,25.31
2023-03-15T08:18:25.554Z,25.31
2023-03-15T08:19:25.560Z,25.31
2023-03-15T08:20:26.243Z,25.30
2023-03-15T08:21:25.549Z,25.28
2023-03-15T08:22:25.552Z,25.28
2023-03-15T08:23:25.567Z,25.30
2023-03-15T08:24:25.562Z,25.32
2023-03-15T08:25:25.510Z,25.33
2023-03-15T08:26:25.503Z,25.35
2023-03-15T08:27:25.487Z,25.38
2023-03-15T08:28:25.522Z,25.40
2023-03-15T08:29:25.518Z,25.41
2023-03-15T08:30:25.505Z,25.43
2023-03-15T08:31:25.527Z,25.39
2023-03-15T08:32:25.769Z,25.31
2023-03-15T08:33:25.458Z,25.25
2023-03-15T08:34:25.467Z,25.21
2023-03-15T08:35:25.469Z,25.16
2023-03-15T08:36:25.509Z,25.10
2023-03-15T08:37:25.671Z,25.06
2023-03-15T08:38:25.490Z,25.06
2023-03-15T08:39:25.494Z,24.97
2023-03-15T08:40:25.539Z,24.87
2023-03-15T08:41:25.603Z,24.83
2023-03-15T08:42:25.551Z,24.86
2023-03-15T08:43:25.590Z,24.94
2023-03-15T08:44:25.540Z,25.05
2023-03-15T08:45:25.575Z,25.16
2023-03-15T08:46:25.659Z,25.24
2023-03-15T08:47:25.682Z,25.35
2023-03-15T08:48:25.690Z,25.44
2023-03-15T08:49:25.674Z,25.55
2023-03-15T08:50:25.868Z,25.60
2023-03-15T08:51:25.695Z,25.65
2023-03-15T08:52:26.716Z,25.70
2023-03-15T08:53:25.696Z,25.76
2023-03-15T08:54:25.690Z,25.83
2023-03-15T08:55:25.660Z,25.85
2023-03-15T08:56:25.642Z,25.88
2023-03-15T08:57:25.653Z,25.90
2023-03-15T08:58:25.693Z,25.94
2023-03-15T08:59:31.854Z,25.98
2023-03-15T12:29:28.790Z,25.53
2023-03-15T12:35:28.345Z,25.45
2023-03-15T12:36:28.375Z,25.47
2023-03-15T12:37:28.335Z,25.49
2023-03-15T12:38:28.310Z,25.51
2023-03-15T12:39:28.392Z,25.52
2023-03-15T12:40:28.300Z,25.54
2023-03-15T12:41:28.304Z,25.56
2023-03-15T12:42:28.304Z,25.60
2023-03-15T12:43:28.307Z,25.60
2023-03-15T12:44:28.269Z,25.62
2023-03-15T12:45:28.794Z,25.64
2023-03-15T12:46:28.325Z,25.66
2023-03-15T12:47:28.253Z,25.68
2023-03-15T12:48:28.258Z,25.68
2023-03-15T12:49:28.243Z,25.70
2023-03-15T12:50:28.209Z,25.71
2023-03-15T12:51:28.282Z,25.72
2023-03-15T12:52:28.227Z,25.71
2023-03-15T12:53:28.219Z,25.72
2023-03-15T12:54:28.214Z,25.72
2023-03-15T12:55:28.220Z,25.73
2023-03-15T12:56:28.193Z,25.74
2023-03-15T12:57:30.043Z,25.74
2023-03-15T12:58:28.173Z,25.73
2023-03-15T12:59:28.180Z,25.74
2023-03-15T13:00:28.188Z,25.74
2023-03-15T13:01:28.181Z,25.73
2023-03-15T13:02:41.830Z,25.73
2023-03-15T13:03:29.197Z,25.73
2023-03-15T13:04:28.143Z,25.73
2023-03-15T13:05:28.163Z,25.74
2023-03-15T13:06:28.130Z,25.74
2023-03-15T13:07:28.146Z,25.74
2023-03-15T13:08:28.138Z,25.74
2023-03-15T13:09:28.109Z,25.75
2023-03-15T13:10:30.279Z,25.74
2023-03-15T13:11:28.104Z,25.75
2023-03-15T13:12:28.081Z,25.75
2023-03-15T13:13:28.101Z,25.75
2023-03-15T13:14:28.077Z,25.75
2023-03-15T13:15:28.075Z,25.74
2023-03-15T13:16:28.153Z,25.74
2023-03-15T13:17:28.064Z,25.75
2023-03-15T13:18:28.051Z,25.74
2023-03-15T13:19:28.027Z,25.74
2023-03-15T13:20:28.057Z,25.75
2023-03-15T13:21:28.039Z,25.73
2023-03-15T13:22:28.023Z,25.73
2023-03-15T13:23:28.055Z,25.72
2023-03-15T13:24:28.042Z,25.72
2023-03-15T13:25:28.013Z,25.72
2023-03-15T13:26:28.002Z,25.71
2023-03-15T13:27:27.981Z,25.72
2023-03-15T13:28:27.958Z,25.71
2023-03-15T13:29:27.979Z,25.71
2023-03-15T13:30:28.334Z,25.70
2023-03-15T13:31:30.659Z,25.70
2023-03-15T13:32:27.961Z,25.69
2023-03-15T13:33:27.973Z,25.69
2023-03-15T13:34:27.946Z,25.69
2023-03-15T13:35:27.980Z,25.69
2023-03-15T13:36:27.925Z,25.69
2023-03-15T13:37:27.940Z,25.69
2023-03-15T13:38:27.938Z,25.70
2023-03-15T13:39:27.944Z,25.69
2023-03-15T13:40:27.953Z,25.69
2023-03-15T13:41:27.932Z,25.68
2023-03-15T13:42:27.911Z,25.68
2023-03-15T13:43:27.914Z,25.67
2023-03-15T13:44:27.914Z,25.68
2023-03-15T13:45:27.867Z,25.67
2023-03-15T13:46:27.932Z,25.67
2023-03-15T13:47:27.900Z,25.67
2023-03-15T13:48:27.890Z,25.66
2023-03-15T13:49:27.850Z,25.67
2023-03-15T13:50:28.306Z,25.66
2023-03-15T13:51:27.858Z,25.65
2023-03-15T13:52:27.861Z,25.65
2023-03-15T13:53:43.208Z,25.65
2023-03-15T13:54:28.820Z,25.63
2023-03-15T13:55:28.332Z,25.64
2023-03-15T13:56:29.484Z,25.62
2023-03-15T13:57:27.809Z,25.62
2023-03-15T13:58:27.808Z,25.62
2023-03-15T13:59:27.771Z,25.62
2023-03-15T14:00:27.790Z,25.62
2023-03-15T14:01:27.819Z,25.61
2023-03-15T14:02:27.831Z,25.61
2023-03-15T14:03:27.775Z,25.61
2023-03-15T14:04:27.739Z,25.60
2023-03-15T14:05:27.765Z,25.60
2023-03-15T14:06:27.824Z,25.59
2023-03-15T14:07:27.872Z,25.59
2023-03-15T14:08:27.903Z,25.59
2023-03-15T14:09:27.958Z,25.59
2023-03-15T14:10:28.005Z,25.57
2023-03-15T14:11:28.003Z,25.57
2023-03-15T14:12:28.067Z,25.56
2023-03-15T14:13:28.070Z,25.54
2023-03-15T14:14:28.073Z,25.53
2023-03-15T14:15:28.118Z,25.53
2023-03-15T14:16:28.240Z,25.52
2023-03-15T14:17:28.197Z,25.51
2023-03-15T14:18:28.221Z,25.50
2023-03-15T14:19:28.257Z,25.50
2023-03-15T14:20:28.850Z,25.49
2023-03-15T14:21:28.341Z,25.48
2023-03-15T14:22:28.354Z,25.49
2023-03-15T14:23:28.393Z,25.48
2023-03-15T14:24:28.470Z,25.48
2023-03-15T14:25:28.434Z,25.48
2023-03-15T14:26:28.434Z,25.49
2023-03-15T14:27:28.417Z,25.49
2023-03-15T14:28:28.420Z,25.50
2023-03-15T14:29:29.368Z,25.51
2023-03-15T14:30:28.505Z,25.51
2023-03-15T14:31:28.481Z,25.52
2023-03-15T14:32:28.761Z,25.53
2023-03-15T14:33:28.673Z,25.53
2023-03-15T14:34:28.690Z,25.53
2023-03-15T14:36:28.580Z,25.53
2023-03-15T16:45:31.880Z,25.22
2023-03-15T16:54:40.865Z,25.21
2023-03-15T16:55:32.688Z,25.21
2023-03-15T16:56:31.689Z,25.19
2023-03-15T16:57:31.671Z,25.19
2023-03-15T16:58:31.660Z,25.19
2023-03-15T16:59:31.647Z,25.18
2023-03-15T17:29:31.695Z,25.06
2023-03-15T17:30:31.757Z,25.06
2023-03-15T17:31:31.853Z,25.05
2023-03-15T17:32:31.933Z,25.05
2023-03-15T17:33:31.935Z,25.05
2023-03-15T17:34:31.988Z,25.05
2023-03-15T17:35:32.133Z,25.05
2023-03-15T17:36:32.117Z,25.04
2023-03-15T17:37:32.172Z,25.04
2023-03-15T17:38:32.226Z,25.03
2023-03-15T17:39:32.336Z,25.03
2023-03-15T17:40:32.422Z,25.03
2023-03-15T17:41:32.412Z,25.03
2023-03-15T17:42:32.470Z,25.03
2023-03-15T17:43:32.484Z,25.03
2023-03-15T17:44:32.502Z,25.03
2023-03-15T17:45:32.525Z,25.03
2023-03-15T17:46:32.661Z,25.03
2023-03-15T17:47:32.674Z,25.02
2023-03-15T17:48:32.740Z,25.02
2023-03-15T17:49:32.762Z,25.01
2023-03-15T17:50:32.822Z,25.02
2023-03-15T17:51:32.872Z,25.01
2023-03-15T17:52:32.912Z,25.01
2023-03-15T17:53:33.010Z,25.01
2023-03-15T17:54:33.064Z,25.00
2023-03-15T17:55:33.146Z,25.00
2023-03-15T17:56:33.187Z,25.00
2023-03-15T17:57:33.846Z,25.00
2023-03-15T17:58:33.302Z,25.01
2023-03-15T17:59:33.379Z,25.00
2023-03-15T18:00:33.458Z,25.00
2023-03-15T18:01:33.532Z,25.00
2023-03-15T18:02:33.707Z,24.99
2023-03-15T18:03:33.620Z,25.00
2023-03-15T18:04:33.649Z,24.99
2023-03-15T18:05:33.707Z,25.00
2023-03-15T18:06:33.767Z,24.99
2023-03-15T18:07:33.853Z,24.99
2023-03-15T18:08:33.914Z,24.99
2023-03-15T18:09:33.917Z,24.99
2023-03-15T18:10:34.015Z,24.97
2023-03-15T18:11:34.060Z,24.98
2023-03-15T18:12:34.111Z,24.97
2023-03-15T18:13:34.197Z,24.97
2023-03-15T18:14:34.229Z,24.97
2023-03-15T18:15:34.314Z,24.96
2023-03-15T18:16:34.400Z,24.96
2023-03-15T18:17:34.430Z,24.96
2023-03-15T18:18:34.476Z,24.97
2023-03-15T18:19:34.579Z,24.96
2023-03-15T18:20:34.597Z,24.96
2023-03-15T18:21:34.660Z,24.96
2023-03-15T18:22:34.722Z,24.96
2023-03-15T18:23:34.775Z,24.95
2023-03-15T18:24:34.815Z,24.95
2023-03-15T18:25:34.895Z,24.95
2023-03-15T18:26:34.949Z,24.94
2023-03-15T18:27:35.001Z,24.95
2023-03-15T18:28:35.066Z,24.95
2023-03-15T18:29:35.109Z,24.95
2023-03-15T18:30:35.166Z,24.94
2023-03-15T18:31:35.264Z,24.95
2023-03-15T18:32:35.274Z,24.94
2023-03-15T18:33:35.283Z,24.94
2023-03-15T18:34:35.396Z,24.94
2023-03-15T18:37:35.570Z,24.93
2023-03-15T18:38:35.646Z,24.93
2023-03-15T18:39:35.673Z,24.93
2023-03-15T18:40:35.744Z,24.92
2023-03-15T18:41:35.808Z,24.92
2023-03-15T18:42:35.859Z,24.92
2023-03-15T18:43:35.891Z,24.93
2023-03-15T18:44:35.927Z,24.92
2023-03-15T18:45:36.226Z,24.92
2023-03-15T18:46:36.023Z,24.92
2023-03-15T18:47:35.975Z,24.92
2023-03-15T18:48:40.890Z,24.92
2023-03-15T18:49:36.997Z,24.91
2023-03-15T18:50:35.950Z,24.92
2023-03-15T18:51:35.945Z,24.91
2023-03-15T18:52:35.984Z,24.91
2023-03-15T18:53:35.948Z,24.91
2023-03-15T18:54:35.954Z,24.91
2023-03-15T18:55:35.952Z,24.91
2023-03-15T18:56:35.961Z,24.91
2023-03-15T18:57:35.931Z,24.91
2023-03-15T18:58:35.956Z,24.90
2023-03-15T18:59:35.911Z,24.90
2023-03-15T19:00:35.885Z,24.90
2023-03-15T19:01:35.903Z,24.90
2023-03-15T19:02:35.919Z,24.90
2023-03-15T19:03:35.882Z,24.90
2023-03-15T19:04:35.862Z,24.90
2023-03-15T19:05:35.860Z,24.89
2023-03-15T19:06:35.864Z,24.89
2023-03-15T19:07:35.922Z,24.90
2023-03-15T19:08:36.024Z,24.90
2023-03-15T19:09:36.033Z,24.89
2023-03-15T19:10:36.093Z,24.90
2023-03-15T19:11:36.160Z,24.90
2023-03-15T19:12:36.226Z,24.89
2023-03-15T19:13:36.251Z,24.90
2023-03-15T19:14:36.361Z,24.89
2023-03-15T19:15:36.413Z,24.89
2023-03-15T19:16:36.519Z,24.89
2023-03-15T19:17:36.482Z,24.89
2023-03-15T19:18:36.555Z,24.89
2023-03-15T19:19:36.585Z,24.89
2023-03-15T19:20:36.643Z,24.89
2023-03-15T19:21:36.675Z,24.88
2023-03-15T19:22:36.775Z,24.89
2023-03-15T19:23:36.794Z,24.89
2023-03-15T19:24:36.867Z,24.90
2023-03-15T19:25:36.908Z,24.89
2023-03-15T19:26:36.952Z,24.89
2023-03-15T19:27:36.993Z,24.89
2023-03-15T19:28:37.023Z,24.88
2023-03-15T19:29:37.078Z,24.89
2023-03-15T19:30:37.196Z,24.89
2023-03-15T19:31:37.173Z,24.89
2023-03-15T19:32:37.232Z,24.89
2023-03-15T19:33:37.237Z,24.89
2023-03-15T19:34:37.283Z,24.88
2023-03-15T19:35:37.291Z,24.88
2023-03-15T19:36:37.267Z,24.88
2023-03-15T19:37:37.257Z,24.88
2023-03-15T19:38:37.292Z,24.87
2023-03-15T19:39:37.316Z,24.88
2023-03-15T19:40:37.363Z,24.88
2023-03-15T19:41:37.335Z,24.87
2023-03-15T19:42:37.379Z,24.87
2023-03-15T19:43:37.404Z,24.86
2023-03-15T19:44:37.404Z,24.86
2023-03-15T19:45:37.433Z,24.87
2023-03-15T19:46:37.463Z,24.87
2023-03-15T19:47:37.469Z,24.87
2023-03-15T19:48:37.472Z,24.87
2023-03-15T19:50:37.496Z,24.87
2023-03-15T19:51:37.577Z,24.87
2023-03-15T19:52:37.615Z,24.86
2023-03-15T19:54:37.733Z,24.87
2023-03-15T19:55:37.778Z,24.87
2023-03-15T19:56:37.825Z,24.87
2023-03-15T19:57:37.814Z,24.87
2023-03-15T19:58:37.852Z,24.87
2023-03-15T19:59:37.936Z,24.87
2023-03-15T20:00:37.937Z,24.87
2023-03-15T20:02:38.017Z,24.87
2023-03-15T20:03:38.084Z,24.88
2023-03-15T20:04:38.022Z,24.87
2023-03-15T20:05:38.068Z,24.87
2023-03-15T20:06:38.072Z,24.87
2023-03-15T20:12:38.159Z,24.86
2023-03-15T20:13:38.134Z,24.87
2023-03-15T20:27:38.301Z,24.86
2023-03-15T20:28:38.353Z,24.85
2023-03-15T20:29:38.346Z,24.86
2023-03-15T20:30:38.396Z,24.86
2023-03-15T20:47:38.976Z,24.85
2023-03-15T21:04:39.282Z,24.84